createdAt,value
2023-07-20T00:04:46.038Z,3.26
2023-07-20T00:07:12.474Z,2.94
2023-07-20T00:09:38.894Z,3.19
2023-07-20T00:12:05.329Z,3.00
2023-07-20T00:14:31.777Z,3.03
2023-07-20T00:16:58.245Z,2.88
2023-07-20T00:19:24.652Z,2.92
2023-07-20T00:21:51.173Z,3.00
2023-07-20T00:24:17.578Z,2.94
2023-07-20T00:26:43.991Z,2.92
2023-07-20T00:29:10.368Z,2.87
2023-07-20T00:31:36.737Z,2.96
2023-07-20T00:34:03.108Z,2.83
2023-07-20T00:36:29.485Z,3.06
2023-07-20T00:38:55.886Z,2.95
2023-07-20T00:41:22.263Z,2.88
2023-07-20T00:43:48.645Z,2.78
2023-07-20T00:46:15.087Z,2.84
2023-07-20T00:48:41.513Z,2.73
2023-07-20T00:51:07.900Z,2.77
2023-07-20T00:53:34.270Z,2.87
2023-07-20T00:56:00.675Z,2.74
2023-07-20T00:58:27.072Z,2.87
2023-07-20T01:00:53.442Z,2.71
2023-07-20T01:03:19.908Z,2.84
2023-07-20T01:05:46.366Z,2.71
2023-07-20T01:08:12.756Z,2.58
2023-07-20T01:10:39.162Z,2.61
2023-07-20T01:13:05.563Z,2.60
2023-07-20T01:15:31.952Z,2.79
2023-07-20T01:17:58.351Z,2.59
2023-07-20T01:20:24.795Z,2.58
2023-07-20T01:22:51.875Z,2.78
2023-07-20T01:25:18.368Z,2.62
2023-07-20T01:27:44.757Z,2.84
2023-07-20T01:30:11.134Z,2.75
2023-07-20T01:32:37.568Z,2.59
2023-07-20T01:35:03.970Z,2.36
2023-07-20T01:37:30.363Z,2.51
2023-07-20T01:39:56.763Z,2.33
2023-07-20T01:42:23.152Z,2.63
2023-07-20T01:44:49.520Z,2.51
2023-07-20T01:47:15.925Z,2.52
2023-07-20T01:49:42.330Z,2.60
2023-07-20T01:52:08.706Z,2.60
2023-07-20T01:54:35.131Z,2.52
2023-07-20T01:57:01.498Z,2.31
2023-07-20T01:59:27.880Z,2.40
2023-07-20T02:01:54.256Z,2.47
2023-07-20T02:04:20.644Z,2.27
2023-07-20T02:06:47.018Z,2.50
2023-07-20T02:09:13.445Z,2.25
2023-07-20T02:11:39.820Z,2.51
2023-07-20T02:14:06.231Z,2.52
2023-07-20T02:16:32.679Z,2.32
2023-07-20T02:18:59.112Z,2.37
2023-07-20T02:21:25.575Z,2.24
2023-07-20T02:23:51.953Z,2.14
2023-07-20T02:26:18.350Z,2.20
2023-07-20T02:28:44.752Z,2.26
2023-07-20T02:31:11.163Z,2.09
2023-07-20T02:33:37.562Z,2.24
2023-07-20T02:36:03.939Z,2.24
2023-07-20T02:38:30.327Z,2.23
2023-07-20T02:40:56.725Z,2.22
2023-07-20T02:43:23.136Z,1.97
2023-07-20T02:45:49.553Z,2.06
2023-07-20T02:48:15.957Z,2.10
2023-07-20T02:50:42.332Z,2.19
2023-07-20T02:53:08.754Z,2.27
2023-07-20T02:55:35.146Z,2.14
2023-07-20T02:58:01.525Z,1.95
2023-07-20T03:00:27.908Z,2.13
2023-07-20T03:02:54.299Z,2.26
2023-07-20T03:05:20.708Z,2.14
2023-07-20T03:07:47.090Z,2.03
2023-07-20T03:10:13.477Z,2.02
2023-07-20T03:12:39.846Z,1.77
2023-07-20T03:15:06.229Z,1.99
2023-07-20T03:17:32.595Z,1.94
2023-07-20T03:19:59.003Z,1.90
2023-07-20T03:22:25.419Z,2.01
2023-07-20T03:24:51.820Z,1.89
2023-07-20T03:27:18.200Z,1.88
2023-07-20T03:29:44.579Z,1.95
2023-07-20T03:32:11.017Z,1.94
2023-07-20T03:34:37.396Z,1.90
2023-07-20T03:37:03.770Z,1.85
2023-07-20T03:39:30.147Z,1.89
2023-07-20T03:41:56.524Z,2.01
2023-07-20T03:44:22.909Z,1.99
2023-07-20T03:46:49.383Z,1.95
2023-07-20T03:49:15.779Z,1.97
2023-07-20T03:51:42.161Z,1.89
2023-07-20T03:54:08.568Z,1.86
2023-07-20T03:56:34.970Z,1.89
2023-07-20T03:59:01.377Z,2.00
2023-07-20T04:01:27.844Z,1.84
2023-07-20T04:03:54.291Z,2.02
2023-07-20T04:06:20.869Z,1.64
2023-07-20T04:08:47.532Z,1.75
2023-07-20T04:11:13.937Z,1.83
2023-07-20T04:13:40.334Z,1.87
2023-07-20T04:16:06.700Z,1.87
2023-07-20T04:18:33.116Z,1.94
2023-07-20T04:20:59.527Z,1.84
2023-07-20T04:23:25.932Z,2.11
2023-07-20T04:25:52.312Z,2.11
2023-07-20T04:28:18.709Z,2.22
2023-07-20T04:30:45.106Z,2.06
2023-07-20T04:33:11.978Z,2.17
2023-07-20T04:35:39.235Z,1.97
2023-07-20T04:38:05.636Z,2.05
2023-07-20T04:40:32.040Z,2.05
2023-07-20T04:42:58.435Z,1.92
2023-07-20T04:45:24.849Z,1.95
2023-07-20T04:47:51.278Z,2.06
2023-07-20T04:50:17.678Z,2.04
2023-07-20T04:52:44.072Z,2.07
2023-07-20T04:55:10.463Z,1.94
2023-07-20T04:57:36.849Z,1.95
2023-07-20T05:00:03.264Z,2.23
2023-07-20T05:02:29.736Z,2.16
2023-07-20T05:04:56.160Z,1.91
2023-07-20T05:07:22.544Z,2.21
2023-07-20T05:09:48.930Z,2.19
2023-07-20T05:12:15.327Z,2.03
2023-07-20T05:14:41.728Z,2.14
2023-07-20T05:17:08.111Z,2.05
2023-07-20T05:19:34.517Z,1.97
2023-07-20T05:22:00.892Z,1.88
2023-07-20T05:24:27.376Z,1.88
2023-07-20T05:26:53.848Z,1.94
2023-07-20T05:29:20.229Z,1.90
2023-07-20T05:31:46.624Z,1.92
2023-07-20T05:34:13.056Z,1.88
2023-07-20T05:36:39.489Z,1.79
2023-07-20T05:39:05.864Z,1.94
2023-07-20T05:41:32.261Z,1.89
2023-07-20T05:43:58.653Z,1.77
2023-07-20T05:46:25.369Z,1.85
2023-07-20T05:48:52.099Z,1.93
2023-07-20T05:51:18.472Z,1.79
2023-07-20T05:53:44.882Z,1.81
2023-07-20T05:56:11.271Z,1.83
2023-07-20T05:58:37.658Z,1.98
2023-07-20T06:01:04.103Z,1.67
2023-07-20T06:03:30.523Z,1.78
2023-07-20T06:05:56.973Z,1.81
2023-07-20T06:08:23.375Z,1.89
2023-07-20T06:10:49.754Z,1.69
2023-07-20T06:13:16.138Z,1.71
2023-07-20T06:15:42.580Z,1.74
2023-07-20T06:18:08.984Z,1.65
2023-07-20T06:20:35.431Z,1.60
2023-07-20T06:23:01.919Z,1.76
2023-07-20T06:25:28.379Z,1.76
2023-07-20T06:27:54.863Z,1.78
2023-07-20T06:30:21.413Z,1.62
2023-07-20T06:32:47.865Z,1.84
2023-07-20T06:35:14.281Z,1.53
2023-07-20T06:37:40.656Z,1.65
2023-07-20T06:45:05.621Z,1.46
2023-07-20T06:47:32.044Z,1.76
2023-07-20T06:49:58.434Z,1.59
2023-07-20T06:52:24.792Z,1.57
2023-07-20T06:54:51.284Z,1.53
2023-07-20T06:57:19.065Z,1.49
2023-07-20T07:02:20.635Z,1.87
2023-07-20T07:04:47.110Z,1.63
2023-07-20T07:07:13.545Z,1.57
2023-07-20T07:09:39.916Z,1.67
2023-07-20T07:12:06.291Z,1.57
2023-07-20T07:14:33.349Z,1.62
2023-07-20T07:17:00.015Z,1.38
2023-07-20T07:19:26.516Z,1.46
2023-07-20T07:21:52.882Z,1.52
2023-07-20T07:24:20.396Z,1.65
2023-07-20T07:26:46.919Z,1.46
2023-07-20T07:29:13.309Z,1.41
2023-07-20T07:31:39.808Z,1.47
2023-07-20T07:34:06.266Z,1.67
2023-07-20T07:36:32.701Z,1.69
2023-07-20T07:41:28.390Z,1.59
2023-07-20T07:43:54.797Z,1.51
2023-07-20T07:46:21.448Z,1.56
2023-07-20T07:48:48.170Z,1.60
2023-07-20T07:51:14.559Z,1.80
2023-07-20T07:53:40.961Z,1.82
2023-07-20T07:56:07.350Z,1.70
2023-07-20T07:58:33.722Z,1.75
2023-07-20T08:01:00.124Z,1.73
2023-07-20T08:03:26.534Z,1.81
2023-07-20T08:05:53.324Z,1.86
2023-07-20T08:08:20.775Z,2.06
2023-07-20T08:10:47.262Z,2.05
2023-07-20T08:13:13.677Z,2.05
2023-07-20T08:15:40.066Z,2.13
2023-07-20T08:18:06.592Z,2.09
2023-07-20T08:20:33.113Z,1.84
2023-07-20T08:22:59.507Z,2.03
2023-07-20T08:25:25.881Z,2.10
2023-07-20T08:27:52.325Z,2.00
2023-07-20T08:30:18.725Z,2.06
2023-07-20T08:32:45.162Z,2.08
2023-07-20T08:35:11.584Z,2.02
2023-07-20T08:37:37.987Z,1.88
2023-07-20T08:40:04.398Z,1.85
2023-07-20T08:42:30.792Z,2.05
2023-07-20T08:44:57.201Z,2.13
2023-07-20T08:47:23.644Z,1.93
2023-07-20T08:49:50.046Z,2.21
2023-07-20T08:52:16.482Z,2.26
2023-07-20T08:54:42.875Z,2.14
2023-07-20T08:57:09.254Z,2.30
2023-07-20T08:59:35.636Z,2.16
2023-07-20T09:02:02.093Z,2.41
2023-07-20T09:04:28.530Z,2.35
2023-07-20T09:06:54.913Z,2.23
2023-07-20T09:09:21.304Z,2.40
2023-07-20T09:11:47.678Z,2.54
2023-07-20T09:14:14.050Z,2.39
2023-07-20T09:16:40.515Z,2.45
2023-07-20T09:19:08.585Z,2.66
2023-07-20T09:21:35.059Z,2.61
2023-07-20T09:24:01.450Z,2.31
2023-07-20T09:26:28.742Z,2.35
2023-07-20T09:28:55.449Z,2.37
2023-07-20T09:31:21.871Z,2.27
2023-07-20T09:36:57.810Z,2.10
2023-07-20T09:39:05.431Z,2.20
2023-07-20T09:44:01.883Z,2.10
2023-07-20T09:51:26.883Z,2.25
2023-07-20T09:53:53.261Z,2.27
2023-07-20T09:56:21.916Z,2.61
2023-07-20T09:58:49.131Z,2.35
2023-07-20T10:01:15.607Z,2.21
2023-07-20T10:03:42.170Z,2.13
2023-07-20T10:06:08.684Z,2.23
2023-07-20T10:11:04.422Z,2.36
2023-07-20T10:13:30.806Z,2.15
2023-07-20T10:15:57.230Z,1.98
2023-07-20T10:18:23.654Z,2.23
2023-07-20T10:23:19.351Z,2.20
2023-07-20T10:25:45.731Z,2.21
2023-07-20T10:28:12.183Z,2.24
2023-07-20T10:30:38.577Z,2.03
2023-07-20T10:33:05.004Z,2.20
2023-07-20T10:35:31.436Z,2.03
2023-07-20T10:37:57.833Z,2.01
2023-07-20T10:40:24.254Z,2.13
2023-07-20T10:42:50.659Z,1.99
2023-07-20T10:45:17.051Z,1.93
2023-07-20T10:47:43.502Z,2.17
2023-07-20T10:50:09.911Z,2.01
2023-07-20T10:52:36.292Z,1.95
2023-07-20T10:55:02.678Z,2.18
2023-07-20T10:57:29.087Z,2.13
2023-07-20T10:59:55.458Z,1.96
2023-07-20T11:02:21.968Z,2.01
2023-07-20T11:04:48.472Z,2.00
2023-07-20T11:07:14.993Z,2.08
2023-07-20T11:09:41.476Z,1.99
2023-07-20T11:12:07.876Z,1.93
2023-07-20T11:14:34.286Z,1.87
2023-07-20T11:17:00.819Z,1.93
2023-07-20T11:22:02.686Z,2.09
2023-07-20T11:24:30.946Z,2.17
2023-07-20T11:26:57.485Z,2.19
2023-07-20T11:29:31.088Z,2.07
2023-07-20T11:31:59.038Z,2.20
2023-07-20T11:34:25.433Z,2.21
2023-07-20T11:39:21.111Z,1.97
2023-07-20T11:41:47.488Z,2.10
2023-07-20T11:44:13.976Z,1.95
2023-07-20T11:46:40.423Z,1.90
2023-07-20T11:49:06.803Z,1.94
2023-07-20T11:51:33.199Z,1.99
2023-07-20T11:53:59.591Z,1.98
2023-07-20T11:56:26.037Z,2.06
2023-07-20T11:58:52.417Z,1.90
2023-07-20T12:01:18.829Z,1.86
2023-07-20T12:03:45.278Z,1.92
2023-07-20T12:06:11.710Z,1.84
2023-07-20T12:08:38.094Z,1.97
2023-07-20T12:11:04.486Z,1.78
2023-07-20T12:13:30.874Z,1.97
2023-07-20T12:15:57.275Z,1.87
2023-07-20T12:18:23.666Z,1.89
2023-07-20T12:20:50.075Z,1.79
2023-07-20T12:23:16.464Z,1.83
2023-07-20T12:25:42.998Z,1.95
2023-07-20T12:28:09.397Z,1.94
2023-07-20T12:30:35.765Z,1.89
2023-07-20T12:33:02.184Z,2.01
2023-07-20T12:35:28.650Z,1.97
2023-07-20T12:37:55.049Z,2.20
2023-07-20T12:40:21.437Z,1.85
2023-07-20T12:42:47.821Z,1.95
2023-07-20T12:45:14.222Z,1.92
2023-07-20T12:47:40.655Z,1.78
2023-07-20T12:50:07.066Z,1.92
2023-07-20T12:52:33.446Z,1.90
2023-07-20T12:54:59.824Z,1.95
2023-07-20T12:57:26.208Z,2.02
2023-07-20T12:59:52.582Z,1.95
2023-07-20T13:02:18.973Z,1.99
2023-07-20T13:04:45.384Z,2.01
2023-07-20T13:09:41.060Z,1.77
2023-07-20T13:12:07.435Z,1.91
2023-07-20T13:14:33.827Z,1.84
2023-07-20T13:17:00.212Z,1.98
2023-07-20T13:19:27.699Z,2.03
2023-07-20T13:21:55.665Z,1.97
2023-07-20T13:24:22.089Z,1.86
2023-07-20T13:26:48.530Z,2.02
2023-07-20T13:29:14.911Z,2.15
2023-07-20T13:31:42.473Z,2.10
2023-07-20T13:34:09.226Z,1.95
2023-07-20T13:36:36.761Z,1.98
2023-07-20T13:39:03.291Z,2.06
2023-07-20T13:41:30.304Z,1.96
2023-07-20T13:43:58.174Z,2.07
2023-07-20T13:48:55.808Z,2.06
2023-07-20T13:53:52.423Z,2.02
2023-07-20T13:56:21.491Z,1.98
2023-07-20T13:58:50.824Z,2.10
2023-07-20T14:01:29.473Z,2.16
2023-07-20T14:03:56.596Z,2.06
2023-07-20T14:06:25.392Z,2.02
2023-07-20T14:08:53.057Z,1.94
2023-07-20T14:13:48.752Z,1.95
2023-07-20T14:16:15.179Z,1.74
2023-07-20T14:18:42.063Z,1.90
2023-07-20T14:21:09.640Z,2.00
2023-07-20T14:23:36.626Z,1.88
2023-07-20T14:26:03.336Z,2.07
2023-07-20T14:28:29.752Z,1.98
2023-07-20T14:30:56.218Z,1.82
2023-07-20T14:33:22.613Z,1.95
2023-07-20T14:35:49.031Z,1.92
2023-07-20T14:38:15.453Z,1.89
2023-07-20T14:40:41.817Z,1.83
2023-07-20T14:43:08.205Z,1.72
2023-07-20T14:45:34.613Z,1.67
2023-07-20T14:48:01.054Z,1.79
2023-07-20T14:50:27.570Z,1.81
2023-07-20T14:52:53.979Z,1.98
2023-07-20T14:55:20.366Z,1.84
2023-07-20T14:57:46.752Z,1.93
2023-07-20T15:00:13.168Z,1.88
2023-07-20T15:02:39.588Z,1.79
2023-07-20T15:05:06.015Z,1.69
2023-07-20T15:07:32.411Z,1.76
2023-07-20T15:09:58.864Z,1.77
2023-07-20T15:12:25.296Z,1.71
2023-07-20T15:14:51.679Z,1.77
2023-07-20T15:17:18.077Z,1.81
2023-07-20T15:19:44.449Z,1.59
2023-07-20T15:22:11.128Z,1.77
2023-07-20T15:24:37.959Z,1.83
2023-07-20T15:27:04.574Z,1.77
2023-07-20T15:32:00.932Z,1.73
2023-07-20T15:34:28.540Z,1.83
2023-07-20T15:36:55.226Z,1.72
2023-07-20T15:39:21.639Z,1.65
2023-07-20T15:41:48.075Z,1.78
2023-07-20T15:44:14.453Z,1.60
2023-07-20T15:46:40.938Z,1.79
2023-07-20T15:49:07.374Z,1.66
2023-07-20T15:51:33.947Z,1.66
2023-07-20T15:54:00.337Z,1.70
2023-07-20T15:56:26.723Z,1.88
2023-07-20T15:58:53.743Z,1.78
2023-07-20T16:01:20.229Z,1.72
2023-07-20T16:03:46.637Z,1.74
2023-07-20T16:06:13.040Z,1.59
2023-07-20T16:08:39.444Z,1.64
2023-07-20T16:11:11.890Z,1.73
2023-07-20T16:13:38.274Z,1.52
2023-07-20T16:16:04.681Z,1.63
2023-07-20T16:18:31.057Z,1.61
2023-07-20T16:20:57.441Z,1.67
2023-07-20T16:23:23.928Z,1.91
2023-07-20T16:25:50.304Z,1.63
2023-07-20T16:28:16.697Z,1.63
2023-07-20T16:30:43.102Z,1.76
2023-07-20T16:33:09.537Z,1.76
2023-07-20T16:40:56.229Z,1.79
2023-07-20T16:45:50.121Z,1.62
2023-07-20T16:48:19.255Z,1.71
2023-07-20T16:50:46.074Z,1.65
2023-07-20T16:53:12.464Z,1.70
2023-07-20T16:55:38.847Z,1.82
2023-07-20T16:58:05.251Z,1.77
2023-07-20T17:00:31.668Z,1.77
2023-07-20T17:02:58.194Z,1.83
2023-07-20T17:05:24.766Z,1.80
2023-07-20T17:07:51.161Z,1.87
2023-07-20T17:10:17.565Z,1.76
2023-07-20T17:12:43.943Z,1.68
2023-07-20T17:15:10.357Z,1.68
2023-07-20T17:17:36.859Z,1.85
2023-07-20T17:22:32.677Z,1.55
2023-07-20T17:27:28.476Z,1.77
2023-07-20T17:29:55.071Z,1.80
2023-07-20T17:32:21.644Z,1.63
2023-07-20T17:34:48.086Z,1.80
2023-07-20T17:37:17.427Z,1.73
2023-07-20T17:44:42.632Z,1.94
2023-07-20T17:49:38.295Z,1.84
2023-07-20T17:52:04.697Z,1.61
2023-07-20T17:54:31.102Z,1.75
2023-07-20T17:56:57.503Z,1.81
2023-07-20T17:59:23.895Z,1.92
2023-07-20T18:01:50.391Z,1.85
2023-07-20T18:04:16.880Z,1.83
2023-07-20T18:06:43.448Z,1.96
2023-07-20T18:09:09.843Z,2.11
2023-07-20T18:11:38.166Z,1.95
2023-07-20T18:14:06.141Z,1.68
2023-07-20T18:16:32.538Z,2.13
2023-07-20T18:18:58.917Z,2.03
2023-07-20T18:21:25.568Z,1.87
2023-07-20T18:23:52.224Z,1.87
2023-07-20T18:26:18.632Z,2.18
2023-07-20T18:28:45.018Z,2.29
2023-07-20T18:31:11.458Z,2.08
2023-07-20T18:33:37.858Z,1.83
2023-07-20T18:36:04.260Z,1.73
2023-07-20T18:38:30.656Z,1.98
2023-07-20T18:40:57.046Z,2.01
2023-07-20T18:43:23.424Z,1.93
2023-07-20T18:45:49.836Z,1.85
2023-07-20T18:48:16.285Z,2.10
2023-07-20T18:50:42.675Z,1.95
2023-07-20T18:53:09.090Z,1.92
2023-07-20T18:55:35.527Z,2.09
2023-07-20T18:58:01.908Z,2.10
2023-07-20T19:00:28.328Z,1.81
2023-07-20T19:02:54.826Z,1.98
2023-07-20T19:05:21.316Z,1.91
2023-07-20T19:07:47.738Z,2.04
2023-07-20T19:10:14.121Z,1.97
2023-07-20T19:12:40.518Z,1.98
2023-07-20T19:15:06.902Z,2.08
2023-07-20T19:17:33.337Z,2.16
2023-07-20T19:19:59.788Z,2.13
2023-07-20T19:22:26.190Z,2.21
2023-07-20T19:24:52.630Z,2.37
2023-07-20T19:27:19.081Z,2.31
2023-07-20T19:29:45.504Z,2.06
2023-07-20T19:32:12.001Z,2.24
2023-07-20T19:34:38.433Z,2.11
2023-07-20T19:37:04.833Z,2.22
2023-07-20T19:39:31.230Z,2.08
2023-07-20T19:41:57.623Z,2.11
2023-07-20T19:44:24.133Z,2.17
2023-07-20T19:46:50.628Z,2.24
2023-07-20T19:49:17.066Z,2.36
2023-07-20T19:51:43.448Z,2.40
2023-07-20T19:56:39.195Z,2.14
2023-07-20T19:59:05.623Z,2.13
2023-07-20T20:06:30.592Z,2.31
2023-07-20T20:08:56.982Z,2.14
2023-07-20T20:11:23.364Z,2.23
2023-07-20T20:13:49.747Z,2.24
2023-07-20T20:16:16.148Z,2.21
2023-07-20T20:18:42.529Z,2.19
2023-07-20T20:21:08.911Z,2.09
2023-07-20T20:23:37.297Z,2.30
2023-07-20T20:26:03.681Z,2.28
2023-07-20T20:28:30.056Z,2.37
2023-07-20T20:30:56.523Z,2.27
2023-07-20T20:33:25.380Z,2.13
2023-07-20T20:35:52.502Z,2.26
2023-07-20T20:38:18.885Z,2.24
2023-07-20T20:40:45.288Z,2.19
2023-07-20T20:43:11.677Z,2.34
2023-07-20T20:45:38.080Z,2.18
2023-07-20T20:48:04.498Z,2.30
2023-07-20T20:50:30.902Z,2.14
2023-07-20T20:52:57.268Z,2.11
2023-07-20T20:55:23.660Z,2.12
2023-07-20T20:57:50.038Z,2.13
2023-07-20T21:00:16.436Z,2.32
2023-07-20T21:02:43.541Z,2.25
2023-07-20T21:05:11.126Z,2.23
2023-07-20T21:07:37.516Z,2.23
2023-07-20T21:10:03.898Z,2.27
2023-07-20T21:12:30.292Z,2.30
2023-07-20T21:14:56.671Z,2.29
2023-07-20T21:17:23.110Z,2.13
2023-07-20T21:19:49.522Z,2.22
2023-07-20T21:22:15.906Z,2.45
2023-07-20T21:24:42.388Z,2.38
2023-07-20T21:27:08.812Z,2.50
2023-07-20T21:29:35.214Z,2.30
2023-07-20T21:32:01.612Z,2.25
2023-07-20T21:34:28.014Z,2.19
2023-07-20T21:36:54.392Z,2.23
2023-07-20T21:39:20.815Z,2.18
2023-07-20T21:41:47.238Z,2.41
2023-07-20T21:44:13.641Z,2.15
2023-07-20T21:46:40.096Z,2.28
2023-07-20T21:49:06.517Z,2.43
2023-07-20T21:51:32.945Z,2.43
2023-07-20T21:53:59.338Z,2.43
2023-07-20T21:56:26.047Z,2.28
2023-07-20T21:58:52.712Z,2.45
2023-07-20T22:03:50.734Z,2.46
2023-07-20T22:06:17.282Z,2.28
2023-07-20T22:08:43.694Z,2.38
2023-07-20T22:11:10.107Z,2.40
2023-07-20T22:13:36.504Z,2.30
2023-07-20T22:16:02.923Z,2.39
2023-07-20T22:18:35.253Z,2.78
2023-07-20T22:21:02.942Z,2.45
2023-07-20T22:23:29.340Z,2.47
2023-07-20T22:25:55.743Z,2.36
2023-07-20T22:28:22.130Z,2.27
2023-07-20T22:30:48.537Z,2.42
2023-07-20T22:33:14.939Z,2.30
2023-07-20T22:35:41.335Z,2.35
2023-07-20T22:38:07.800Z,2.49
2023-07-20T22:40:34.203Z,2.28
2023-07-20T22:43:00.599Z,2.41
2023-07-20T22:45:26.986Z,2.34
2023-07-20T22:47:53.401Z,2.37
2023-07-20T22:50:19.818Z,2.35
2023-07-20T22:52:46.201Z,2.40
2023-07-20T22:55:12.585Z,2.25
2023-07-20T22:57:38.953Z,2.58
2023-07-20T23:00:05.335Z,2.34
2023-07-20T23:02:31.824Z,2.63
2023-07-20T23:04:58.314Z,2.46
2023-07-20T23:07:24.707Z,2.58
2023-07-20T23:09:51.133Z,2.35
2023-07-20T23:12:17.539Z,2.29
2023-07-20T23:14:43.925Z,2.32
2023-07-20T23:17:10.316Z,2.35
2023-07-20T23:19:36.716Z,2.44
2023-07-20T23:22:03.080Z,2.35
2023-07-20T23:24:29.531Z,2.41
2023-07-20T23:26:55.946Z,2.44
2023-07-20T23:29:22.321Z,2.41
2023-07-20T23:31:48.790Z,2.71
2023-07-20T23:34:15.195Z,2.53
2023-07-20T23:36:41.585Z,2.55
2023-07-20T23:39:07.988Z,2.40
2023-07-20T23:41:34.390Z,2.47
2023-07-20T23:44:00.766Z,2.41
2023-07-20T23:46:27.406Z,2.50
2023-07-20T23:48:53.996Z,2.51
2023-07-20T23:51:20.396Z,2.42
2023-07-20T23:53:46.788Z,2.36
2023-07-20T23:56:13.162Z,2.51
2023-07-20T23:58:39.550Z,2.49
